createdAt,value
2023-03-18T00:01:37.828Z,29.87
2023-03-18T00:04:07.837Z,19.30
2023-03-18T00:06:40.639Z,23.20
2023-03-18T00:09:14.645Z,35.90
2023-03-18T00:11:43.852Z,24.07
2023-03-18T00:14:14.971Z,23.73
2023-03-18T00:16:43.731Z,17.93
2023-03-18T00:19:12.150Z,23.60
2023-03-18T00:21:51.520Z,35.50
2023-03-18T00:24:21.161Z,62.27
2023-03-18T00:26:52.120Z,53.80
2023-03-18T00:29:25.077Z,51.30
2023-03-18T00:31:54.315Z,37.37
2023-03-18T00:34:25.082Z,31.93
2023-03-18T00:36:58.275Z,22.03
2023-03-18T00:39:29.490Z,25.53
2023-03-18T00:42:13.179Z,20.33
2023-03-18T00:44:43.569Z,21.07
2023-03-18T00:47:21.460Z,35.37
2023-03-18T00:49:54.875Z,24.67
2023-03-18T00:52:33.765Z,33.17
2023-03-18T00:55:03.282Z,28.03
2023-03-18T00:57:38.775Z,26.20
2023-03-18T01:00:12.994Z,29.10
2023-03-18T01:02:43.149Z,21.03
2023-03-18T01:05:14.686Z,14.67
2023-03-18T01:07:48.681Z,16.03
2023-03-18T01:10:17.843Z,40.67
2023-03-18T01:12:48.727Z,33.73
2023-03-18T01:15:20.092Z,25.60
2023-03-18T01:17:49.055Z,27.87
2023-03-18T01:20:20.035Z,29.30
2023-03-18T01:22:55.371Z,24.03
2023-03-18T01:25:23.907Z,43.20
2023-03-18T01:27:56.363Z,24.37
2023-03-18T01:30:25.201Z,34.07
2023-03-18T01:32:56.940Z,38.50
2023-03-18T01:35:30.636Z,19.43
2023-03-18T01:38:04.422Z,16.30
2023-03-18T01:40:35.657Z,13.37
2023-03-18T01:43:18.163Z,14.67
2023-03-18T01:45:51.098Z,17.87
2023-03-18T01:48:24.176Z,14.17
2023-03-18T01:51:03.286Z,13.00
2023-03-18T01:53:40.324Z,14.10
2023-03-18T01:56:10.442Z,15.80
2023-03-18T01:58:43.611Z,17.10
2023-03-18T02:01:20.257Z,17.23
2023-03-18T02:03:52.120Z,24.60
2023-03-18T02:06:21.957Z,21.43
2023-03-18T02:09:07.710Z,16.70
2023-03-18T02:11:39.709Z,14.93
2023-03-18T02:14:18.400Z,12.10
2023-03-18T02:16:54.465Z,11.60
2023-03-18T02:19:42.811Z,15.87
2023-03-18T02:22:28.079Z,18.40
2023-03-18T02:25:26.823Z,16.70
2023-03-18T02:28:04.269Z,12.30
2023-03-18T02:30:37.733Z,15.37
2023-03-18T02:33:12.944Z,21.40
2023-03-18T02:35:48.744Z,18.60
2023-03-18T02:38:19.798Z,19.43
2023-03-18T02:40:53.935Z,21.87
2023-03-18T02:43:33.240Z,14.23
2023-03-18T02:46:43.217Z,13.80
2023-03-18T02:49:14.224Z,31.83
2023-03-18T02:51:42.929Z,15.40
2023-03-18T02:54:17.143Z,13.63
2023-03-18T02:56:46.609Z,18.37
2023-03-18T02:59:17.765Z,14.13
2023-03-18T03:01:48.361Z,13.90
2023-03-18T03:04:19.717Z,15.80
2023-03-18T03:06:53.045Z,20.13
2023-03-18T03:09:33.493Z,16.83
2023-03-18T03:12:03.128Z,13.90
2023-03-18T03:14:34.633Z,12.13
2023-03-18T03:17:05.034Z,20.03
2023-03-18T03:19:33.842Z,11.37
2023-03-18T03:22:04.225Z,13.13
2023-03-18T03:24:32.887Z,15.63
2023-03-18T03:27:01.778Z,19.70
2023-03-18T03:29:30.761Z,23.10
2023-03-18T03:32:02.376Z,15.47
2023-03-18T03:34:32.873Z,15.00
2023-03-18T03:37:02.557Z,13.37
2023-03-18T03:39:33.043Z,13.43
2023-03-18T03:42:08.805Z,14.13
2023-03-18T03:44:37.865Z,12.53
2023-03-18T03:47:11.410Z,18.30
2023-03-18T03:49:41.891Z,26.53
2023-03-18T03:52:12.356Z,21.57
2023-03-18T03:54:42.728Z,20.40
2023-03-18T03:57:21.102Z,15.80
2023-03-18T03:59:50.997Z,12.40
2023-03-18T04:02:48.181Z,14.77
2023-03-18T04:05:43.805Z,12.40
2023-03-18T04:08:12.250Z,13.63
2023-03-18T04:10:42.861Z,18.00
2023-03-18T04:13:12.809Z,16.77
2023-03-18T04:16:04.392Z,17.87
2023-03-18T04:18:37.877Z,12.33
2023-03-18T04:21:08.135Z,14.10
2023-03-18T04:23:47.983Z,11.70
2023-03-18T04:26:20.227Z,13.73
2023-03-18T04:29:08.789Z,14.23
2023-03-18T04:31:40.764Z,13.07
2023-03-18T04:34:11.433Z,11.00
2023-03-18T04:36:40.093Z,19.07
2023-03-18T04:39:11.077Z,12.20
2023-03-18T04:41:42.145Z,12.30
2023-03-18T04:44:13.896Z,10.93
2023-03-18T04:46:48.225Z,11.87
2023-03-18T04:49:17.973Z,11.90
2023-03-18T04:51:48.231Z,12.27
2023-03-18T04:54:25.660Z,26.93
2023-03-18T04:56:57.910Z,28.33
2023-03-18T04:59:30.427Z,33.37
2023-03-18T05:01:59.677Z,44.20
2023-03-18T05:04:30.709Z,47.10
2023-03-18T05:06:59.668Z,28.93
2023-03-18T05:09:35.119Z,24.67
2023-03-18T05:12:03.650Z,30.77
2023-03-18T05:14:40.017Z,27.67
2023-03-18T05:17:16.059Z,19.83
2023-03-18T05:19:56.779Z,24.47
2023-03-18T05:22:28.775Z,19.67
2023-03-18T05:25:13.757Z,18.27
2023-03-18T05:27:49.582Z,18.37
2023-03-18T05:30:30.719Z,17.30
2023-03-18T05:33:07.997Z,17.07
2023-03-18T05:35:48.712Z,19.13
2023-03-18T05:38:21.262Z,23.33
2023-03-18T05:40:50.350Z,29.30
2023-03-18T05:43:29.187Z,19.23
2023-03-18T05:46:01.546Z,21.63
2023-03-18T05:48:59.214Z,17.70
2023-03-18T05:51:36.451Z,12.57
2023-03-18T05:54:07.126Z,15.27
2023-03-18T05:56:45.976Z,30.00
2023-03-18T05:59:40.766Z,17.93
2023-03-18T06:02:15.766Z,17.73
2023-03-18T06:04:48.667Z,15.97
2023-03-18T06:07:23.089Z,19.00
2023-03-18T06:09:54.200Z,15.03
2023-03-18T06:12:27.787Z,19.40
2023-03-18T06:15:23.667Z,17.13
2023-03-18T06:20:36.761Z,14.23
2023-03-18T06:23:10.678Z,15.17
2023-03-18T06:25:41.293Z,15.40
2023-03-18T06:28:22.806Z,12.60
2023-03-18T06:31:00.244Z,17.83
2023-03-18T06:33:30.625Z,24.83
2023-03-18T06:36:02.470Z,24.03
2023-03-18T06:38:36.764Z,27.90
2023-03-18T06:41:06.241Z,40.50
2023-03-18T06:43:43.441Z,44.60
2023-03-18T06:46:14.574Z,76.37
2023-03-18T06:48:50.130Z,48.07
2023-03-18T06:51:25.581Z,43.33
2023-03-18T06:53:58.766Z,33.00
2023-03-18T06:56:28.599Z,21.33
2023-03-18T06:59:04.154Z,24.40
2023-03-18T07:01:33.593Z,26.50
2023-03-18T07:04:02.952Z,22.13
2023-03-18T07:06:31.935Z,27.37
2023-03-18T07:09:01.698Z,28.97
2023-03-18T07:11:45.313Z,19.77
2023-03-18T07:14:19.419Z,29.03
2023-03-18T07:16:48.313Z,23.40
2023-03-18T07:19:19.666Z,22.70
2023-03-18T07:21:49.601Z,23.00
2023-03-18T07:24:21.803Z,23.40
2023-03-18T07:26:52.670Z,22.57
2023-03-18T07:29:22.365Z,22.77
2023-03-18T07:31:51.286Z,17.40
2023-03-18T07:34:24.370Z,19.13
2023-03-18T07:36:54.575Z,13.67
2023-03-18T07:39:26.316Z,16.50
2023-03-18T07:41:59.918Z,21.07
2023-03-18T07:44:32.749Z,20.10
2023-03-18T07:47:03.244Z,15.20
2023-03-18T07:49:32.974Z,17.30
2023-03-18T07:52:03.918Z,25.70
2023-03-18T07:54:35.670Z,31.10
2023-03-18T07:57:05.381Z,27.07
2023-03-18T07:59:34.452Z,29.53
2023-03-18T08:02:02.986Z,20.50
2023-03-18T08:04:36.763Z,21.27
2023-03-18T08:07:08.575Z,17.53
2023-03-18T08:09:42.176Z,12.97
2023-03-18T08:12:11.588Z,10.80
2023-03-18T08:14:40.553Z,9.60
2023-03-18T08:17:10.794Z,9.93
2023-03-18T08:19:39.704Z,10.63
2023-03-18T08:22:10.706Z,15.90
2023-03-18T08:24:41.585Z,15.40
2023-03-18T08:27:11.335Z,15.20
2023-03-18T08:29:43.095Z,12.50
2023-03-18T08:32:13.449Z,11.13
2023-03-18T08:34:43.196Z,10.40
2023-03-18T08:37:15.050Z,9.50
2023-03-18T08:39:50.712Z,7.10
2023-03-18T08:42:19.492Z,12.13
2023-03-18T08:44:47.871Z,8.33
2023-03-18T08:47:16.026Z,12.10
2023-03-18T08:49:52.234Z,8.10
2023-03-18T08:52:22.531Z,11.33
2023-03-18T08:54:53.307Z,10.70
2023-03-18T08:57:22.338Z,8.90
2023-03-18T08:59:52.304Z,7.10
2023-03-18T09:02:24.026Z,7.60
2023-03-18T09:05:02.712Z,7.83
2023-03-18T09:07:31.487Z,7.10
2023-03-18T09:10:04.563Z,6.97
2023-03-18T09:12:33.612Z,6.90
2023-03-18T09:15:02.906Z,15.43
2023-03-18T09:17:47.238Z,8.47
2023-03-18T09:20:23.311Z,11.00
2023-03-18T09:22:54.829Z,5.93
2023-03-18T09:25:26.813Z,15.77
2023-03-18T09:27:56.519Z,8.63
2023-03-18T09:30:29.146Z,6.90
2023-03-18T09:32:58.017Z,5.03
2023-03-18T09:35:30.303Z,9.93
2023-03-18T09:37:59.451Z,6.73
2023-03-18T09:40:35.277Z,7.47
2023-03-18T09:43:23.422Z,7.07
2023-03-18T09:46:06.279Z,6.07
2023-03-18T09:49:08.571Z,11.10
2023-03-18T09:51:48.917Z,5.40
2023-03-18T09:54:26.052Z,6.90
2023-03-18T09:56:59.331Z,7.90
2023-03-18T09:59:38.200Z,5.87
2023-03-18T10:02:15.056Z,8.00
2023-03-18T10:04:50.576Z,11.20
2023-03-18T10:07:23.006Z,7.30
2023-03-18T10:09:58.383Z,10.53
2023-03-18T10:12:34.534Z,7.43
2023-03-18T10:15:16.489Z,6.77
2023-03-18T10:17:50.924Z,7.77
2023-03-18T10:20:31.449Z,6.30
2023-03-18T10:23:07.902Z,7.17
2023-03-18T10:25:41.188Z,8.13
2023-03-18T10:28:48.932Z,6.93
2023-03-18T10:31:30.672Z,9.17
2023-03-18T10:34:02.251Z,9.77
2023-03-18T10:36:42.406Z,6.23
2023-03-18T10:39:16.454Z,6.10
2023-03-18T10:41:51.551Z,12.93
2023-03-18T10:44:26.833Z,6.80
2023-03-18T10:47:00.826Z,15.70
2023-03-18T10:49:35.231Z,7.20
2023-03-18T10:52:12.052Z,5.10
2023-03-18T10:54:44.388Z,5.97
2023-03-18T10:57:17.334Z,8.70
2023-03-18T10:59:47.944Z,5.30
2023-03-18T11:02:20.595Z,7.40
2023-03-18T11:04:54.478Z,6.63
2023-03-18T11:07:27.073Z,7.10
2023-03-18T11:09:56.382Z,9.87
2023-03-18T11:12:29.201Z,5.90
2023-03-18T11:15:02.525Z,9.50
2023-03-18T11:17:34.245Z,6.60
2023-03-18T11:20:08.023Z,6.90
2023-03-18T11:22:38.706Z,9.43
2023-03-18T11:25:14.989Z,8.60
2023-03-18T11:27:56.342Z,6.60
2023-03-18T11:30:34.354Z,8.47
2023-03-18T11:33:08.639Z,7.57
2023-03-18T11:35:42.084Z,11.67
2023-03-18T11:38:16.989Z,10.50
2023-03-18T11:40:48.691Z,7.80
2023-03-18T11:43:21.166Z,5.83
2023-03-18T11:46:00.423Z,8.10
2023-03-18T11:48:36.557Z,7.57
2023-03-18T11:51:27.268Z,7.07
2023-03-18T11:54:25.313Z,7.10
2023-03-18T11:57:00.376Z,8.63
2023-03-18T11:59:47.064Z,6.43
2023-03-18T12:02:30.262Z,5.20
2023-03-18T12:05:29.359Z,7.50
2023-03-18T12:08:09.864Z,8.10
2023-03-18T12:10:48.343Z,11.60
2023-03-18T12:13:37.530Z,7.97
2023-03-18T12:16:15.104Z,5.70
2023-03-18T12:19:11.215Z,7.00
2023-03-18T12:22:04.688Z,10.87
2023-03-18T12:24:50.070Z,5.90
2023-03-18T12:27:26.963Z,5.83
2023-03-18T12:30:09.911Z,9.20
2023-03-18T12:32:43.402Z,10.77
2023-03-18T12:35:30.690Z,9.00
2023-03-18T12:38:15.867Z,8.10
2023-03-18T12:40:58.245Z,7.40
2023-03-18T12:43:52.550Z,6.70
2023-03-18T12:46:31.947Z,7.70
2023-03-18T12:49:07.370Z,6.73
2023-03-18T12:51:45.978Z,6.70
2023-03-18T12:54:21.648Z,6.30
2023-03-18T12:56:58.337Z,6.23
2023-03-18T12:59:39.171Z,6.60
2023-03-18T13:02:29.468Z,5.87
2023-03-18T13:05:02.899Z,6.63
2023-03-18T13:07:43.187Z,12.40
2023-03-18T13:10:21.908Z,6.03
2023-03-18T13:12:54.908Z,14.30
2023-03-18T13:15:32.084Z,5.00
2023-03-18T13:18:07.019Z,7.40
2023-03-18T13:20:39.812Z,6.90
2023-03-18T13:23:23.427Z,5.00
2023-03-18T13:26:04.183Z,6.70
2023-03-18T13:28:55.872Z,6.33
2023-03-18T13:31:38.590Z,8.47
2023-03-18T13:34:54.223Z,8.57
2023-03-18T13:37:48.944Z,10.63
2023-03-18T13:40:44.600Z,8.90
2023-03-18T13:43:15.396Z,5.23
2023-03-18T13:45:48.156Z,8.00
2023-03-18T13:48:23.136Z,6.70
2023-03-18T13:50:54.979Z,7.47
2023-03-18T13:53:30.103Z,9.67
2023-03-18T13:56:08.872Z,5.30
2023-03-18T13:58:51.052Z,5.97
2023-03-18T14:01:35.845Z,6.73
2023-03-18T14:04:31.308Z,12.60
2023-03-18T14:07:17.780Z,9.00
2023-03-18T14:10:02.551Z,5.60
2023-03-18T14:12:45.479Z,8.67
2023-03-18T14:15:41.773Z,7.17
2023-03-18T14:18:27.668Z,8.37
2023-03-18T14:21:10.709Z,7.30
2023-03-18T14:23:42.788Z,6.23
2023-03-18T14:26:22.567Z,5.83
2023-03-18T14:28:56.680Z,5.30
2023-03-18T14:31:50.910Z,5.70
2023-03-18T14:34:29.971Z,6.30
2023-03-18T14:37:29.582Z,8.07
2023-03-18T14:40:03.791Z,6.93
2023-03-18T14:42:58.324Z,8.60
2023-03-18T14:45:33.276Z,6.50
2023-03-18T14:48:07.699Z,8.70
2023-03-18T14:50:42.012Z,6.10
2023-03-18T14:53:18.284Z,7.00
2023-03-18T14:55:49.964Z,7.27
2023-03-18T14:58:19.927Z,8.73
2023-03-18T15:00:55.319Z,9.13
2023-03-18T15:03:35.211Z,6.83
2023-03-18T15:06:07.744Z,7.07
2023-03-18T15:08:47.799Z,9.97
2023-03-18T15:11:19.486Z,7.40
2023-03-18T15:13:48.042Z,12.37
2023-03-18T15:16:21.606Z,12.20
2023-03-18T15:18:54.929Z,13.07
2023-03-18T15:21:27.607Z,23.50
2023-03-18T15:23:59.716Z,8.07
2023-03-18T15:26:32.623Z,9.00
2023-03-18T15:29:04.366Z,6.70
2023-03-18T15:31:43.613Z,5.83
2023-03-18T15:34:20.135Z,5.20
2023-03-18T15:36:54.276Z,4.80
2023-03-18T15:39:30.785Z,5.03
2023-03-18T15:42:02.644Z,8.70
2023-03-18T15:44:34.641Z,14.10
2023-03-18T15:47:13.898Z,10.27
2023-03-18T15:49:52.267Z,6.90
2023-03-18T15:52:26.390Z,6.70
2023-03-18T15:54:56.707Z,8.13
2023-03-18T15:57:32.437Z,6.63
2023-03-18T16:00:04.493Z,5.90
2023-03-18T16:02:41.928Z,9.03
2023-03-18T16:05:16.464Z,7.00
2023-03-18T16:07:47.186Z,7.60
2023-03-18T16:10:20.199Z,11.90
2023-03-18T16:12:57.060Z,11.40
2023-03-18T16:15:28.012Z,6.80
2023-03-18T16:18:01.596Z,12.40
2023-03-18T16:20:33.414Z,9.40
2023-03-18T16:23:02.246Z,9.33
2023-03-18T16:25:31.457Z,8.27
2023-03-18T16:28:26.150Z,10.67
2023-03-18T16:30:56.108Z,6.33
2023-03-18T16:33:26.061Z,11.10
2023-03-18T16:35:58.515Z,10.90
2023-03-18T16:38:28.450Z,16.93
2023-03-18T16:40:57.373Z,16.10
2023-03-18T16:43:28.214Z,12.13
2023-03-18T16:46:00.310Z,8.53
2023-03-18T16:48:31.230Z,9.20
2023-03-18T16:51:02.329Z,10.27
2023-03-18T16:53:33.243Z,16.87
2023-03-18T16:56:05.334Z,6.80
2023-03-18T16:58:35.872Z,9.33
2023-03-18T17:01:07.327Z,10.63
2023-03-18T17:03:37.667Z,24.00
2023-03-18T17:06:06.809Z,12.43
2023-03-18T17:08:36.491Z,15.33
2023-03-18T17:11:05.547Z,16.67
2023-03-18T17:13:37.548Z,10.90
2023-03-18T17:16:05.926Z,10.13
2023-03-18T17:18:33.826Z,17.13
2023-03-18T17:21:05.355Z,13.07
2023-03-18T17:23:34.573Z,10.40
2023-03-18T17:26:04.523Z,9.23
2023-03-18T17:28:37.960Z,16.87
2023-03-18T17:31:07.563Z,14.30
2023-03-18T17:33:37.539Z,14.83
2023-03-18T17:36:08.592Z,16.23
2023-03-18T17:38:37.219Z,21.10
2023-03-18T17:41:14.755Z,15.77
2023-03-18T17:43:43.011Z,17.33
2023-03-18T17:46:15.668Z,19.53
2023-03-18T17:48:43.889Z,23.80
2023-03-18T17:51:17.272Z,28.83
2023-03-18T17:53:47.852Z,26.00
2023-03-18T17:56:17.692Z,35.77
2023-03-18T17:58:47.477Z,37.37
2023-03-18T18:01:19.452Z,54.40
2023-03-18T18:03:47.767Z,62.50
2023-03-18T18:06:20.191Z,56.47
2023-03-18T18:08:48.794Z,57.87
2023-03-18T18:11:22.019Z,43.60
2023-03-18T18:13:51.069Z,53.60
2023-03-18T18:16:19.806Z,70.43
2023-03-18T18:18:49.859Z,87.20
2023-03-18T18:21:22.721Z,98.97
2023-03-18T18:23:51.323Z,97.13
2023-03-18T18:26:21.910Z,69.00
2023-03-18T18:28:52.073Z,52.13
2023-03-18T18:31:21.922Z,45.43
2023-03-18T18:33:50.667Z,48.03
2023-03-18T18:36:19.984Z,36.87
2023-03-18T18:38:49.072Z,71.30
2023-03-18T18:41:17.644Z,51.50
2023-03-18T18:43:45.636Z,43.03
2023-03-18T18:46:15.128Z,25.77
2023-03-18T18:48:48.143Z,21.43
2023-03-18T18:51:18.667Z,33.63
2023-03-18T18:53:49.071Z,36.33
2023-03-18T18:56:19.891Z,36.63
2023-03-18T18:58:48.932Z,34.70
2023-03-18T19:01:19.613Z,67.40
2023-03-18T19:03:48.265Z,44.20
2023-03-18T19:06:25.223Z,30.73
2023-03-18T19:08:55.780Z,33.90
2023-03-18T19:11:24.639Z,32.43
2023-03-18T19:13:53.290Z,25.80
2023-03-18T19:16:30.131Z,32.23
2023-03-18T19:18:59.051Z,63.53
2023-03-18T19:21:27.962Z,70.43
2023-03-18T19:23:59.366Z,57.40
2023-03-18T19:26:27.573Z,66.40
2023-03-18T19:28:59.208Z,127.07
2023-03-18T19:31:30.823Z,83.67
2023-03-18T19:34:00.849Z,71.33
2023-03-18T19:36:31.491Z,37.23
2023-03-18T19:39:02.104Z,26.77
2023-03-18T19:41:30.733Z,43.70
2023-03-18T19:44:03.983Z,23.70
2023-03-18T19:46:38.535Z,30.57
2023-03-18T19:49:16.864Z,31.00
2023-03-18T19:51:44.835Z,27.27
2023-03-18T19:54:27.055Z,24.50
2023-03-18T19:56:56.319Z,26.20
2023-03-18T19:59:33.624Z,29.20
2023-03-18T20:02:12.531Z,45.53
2023-03-18T20:04:41.425Z,32.83
2023-03-18T20:07:09.341Z,45.40
2023-03-18T20:09:39.418Z,52.90
2023-03-18T20:12:18.804Z,82.77
2023-03-18T20:14:46.868Z,55.47
2023-03-18T20:17:34.959Z,47.57
2023-03-18T20:20:03.150Z,46.70
2023-03-18T20:22:33.882Z,26.70
2023-03-18T20:25:05.048Z,28.33
2023-03-18T20:27:33.372Z,20.97
2023-03-18T20:30:01.820Z,32.53
2023-03-18T20:32:29.730Z,32.47
2023-03-18T20:34:57.774Z,13.53
2023-03-18T20:37:30.995Z,17.57
2023-03-18T20:40:00.235Z,18.90
2023-03-18T20:42:30.645Z,22.67
2023-03-18T20:44:58.537Z,26.00
2023-03-18T20:47:26.423Z,26.53
2023-03-18T20:49:55.018Z,21.83
2023-03-18T20:52:26.631Z,39.60
2023-03-18T20:54:56.524Z,39.50
2023-03-18T20:57:25.071Z,40.67
2023-03-18T20:59:58.472Z,107.20
2023-03-18T21:02:31.862Z,60.23
2023-03-18T21:05:01.642Z,29.37
2023-03-18T21:07:29.747Z,26.80
2023-03-18T21:09:57.865Z,25.37
2023-03-18T21:12:25.943Z,31.00
2023-03-18T21:14:53.926Z,27.63
2023-03-18T21:17:24.960Z,34.00
2023-03-18T21:19:54.402Z,28.30
2023-03-18T21:22:24.463Z,29.43
2023-03-18T21:24:52.360Z,29.50
2023-03-18T21:27:21.653Z,36.00
2023-03-18T21:29:51.134Z,40.67
2023-03-18T21:32:25.705Z,32.40
2023-03-18T21:34:54.301Z,31.17
2023-03-18T21:37:23.608Z,30.67
2023-03-18T21:39:52.385Z,29.30
2023-03-18T21:42:23.976Z,27.70
2023-03-18T21:44:52.489Z,28.93
2023-03-18T21:47:23.859Z,26.90
2023-03-18T21:49:52.289Z,79.70
2023-03-18T21:52:26.169Z,52.40
2023-03-18T21:54:54.148Z,44.60
2023-03-18T21:57:28.254Z,25.37
2023-03-18T22:00:14.599Z,26.70
2023-03-18T22:02:59.295Z,24.97
2023-03-18T22:05:40.935Z,18.00
2023-03-18T22:08:16.968Z,14.40
2023-03-18T22:10:55.937Z,19.60
2023-03-18T22:13:34.603Z,15.77
2023-03-18T22:16:14.141Z,18.67
2023-03-18T22:18:50.603Z,14.90
2023-03-18T22:21:26.045Z,14.13
2023-03-18T22:24:08.249Z,21.80
2023-03-18T22:26:38.211Z,16.80
2023-03-18T22:29:15.823Z,15.70
2023-03-18T22:31:50.183Z,33.63
2023-03-18T22:34:30.603Z,21.13
2023-03-18T22:37:14.436Z,18.17
2023-03-18T22:39:43.544Z,17.37
2023-03-18T22:42:24.036Z,19.93
2023-03-18T22:44:52.937Z,22.33
2023-03-18T22:47:23.220Z,19.73
2023-03-18T22:49:53.387Z,22.23
2023-03-18T22:52:26.099Z,20.43
2023-03-18T22:54:57.301Z,17.93
2023-03-18T22:57:27.271Z,54.97
2023-03-18T22:59:56.790Z,57.43
2023-03-18T23:02:27.748Z,31.20
2023-03-18T23:04:57.509Z,34.30
2023-03-18T23:07:35.509Z,30.70
2023-03-18T23:10:04.676Z,24.80
2023-03-18T23:12:34.550Z,29.17
2023-03-18T23:15:03.886Z,40.10
2023-03-18T23:17:32.444Z,32.10
2023-03-18T23:20:01.877Z,35.67
2023-03-18T23:22:32.290Z,39.40
2023-03-18T23:25:00.644Z,233.80
2023-03-18T23:27:29.874Z,176.37
2023-03-18T23:29:58.882Z,52.73
2023-03-18T23:32:26.921Z,34.60
2023-03-18T23:34:54.900Z,29.57
2023-03-18T23:37:24.225Z,47.03
2023-03-18T23:39:52.241Z,48.50
2023-03-18T23:42:21.564Z,54.00
2023-03-18T23:44:49.656Z,56.80
2023-03-18T23:47:17.886Z,36.60
2023-03-18T23:49:46.052Z,41.10
2023-03-18T23:52:16.058Z,31.83
2023-03-18T23:54:45.441Z,36.97
2023-03-18T23:57:13.632Z,44.03
2023-03-18T23:59:41.844Z,26.10
